Terminal Aerodrome Forecast
Issued by NWS

Home | Current Version | Previous Version | Text Only | Print | Product List | Glossary Off
Versions: 1 2 3 4 5 6 7 8 9 10 11 12 13 14 15 16 17 18 19 20 21 22 23

000
FTUS41 KCLE 290214 AAA
TAFFDY
TAF AMD
KFDY 290214Z 2902/2924 08008KT P6SM VCSH BKN025 OVC040
      TEMPO 2902/2904 3SM -RA BR BKN015 OVC025
     FM290400 06008KT P6SM VCSH BKN025 OVC040
      TEMPO 2904/2908 SCT007 OVC015
     FM290800 08005KT P6SM VCSH BKN015 OVC025
      TEMPO 2909/2913 SCT015 OVC025
     FM291300 08005KT P6SM VCSH SCT015 OVC025
     FM292000 06010KT P6SM VCSH OVC015=

USA.gov is the U.S. government's official web portal to all federal, state and local government web resources and services.